sensor_id;sensor_type;location;lat;lon;timestamp;P1;durP1;ratioP1;P2;durP2;ratioP2
17832;SDS011;9041;49.718;21.798;2023-04-24T00:00:39;8.02;;;4.53;;
17832;SDS011;9041;49.718;21.798;2023-04-24T00:03:10;7.55;;;4.97;;
17832;SDS011;9041;49.718;21.798;2023-04-24T00:05:39;7.47;;;4.70;;
17832;SDS011;9041;49.718;21.798;2023-04-24T00:08:07;11.10;;;4.57;;
17832;SDS011;9041;49.718;21.798;2023-04-24T00:10:33;10.45;;;4.97;;
17832;SDS011;9041;49.718;21.798;2023-04-24T00:13:00;9.02;;;4.80;;
17832;SDS011;9041;49.718;21.798;2023-04-24T00:15:27;7.45;;;4.88;;
17832;SDS011;9041;49.718;21.798;2023-04-24T00:17:54;9.15;;;4.88;;
17832;SDS011;9041;49.718;21.798;2023-04-24T00:20:20;7.75;;;4.57;;
17832;SDS011;9041;49.718;21.798;2023-04-24T00:22:49;7.03;;;4.80;;
17832;SDS011;9041;49.718;21.798;2023-04-24T00:25:15;7.20;;;5.00;;
17832;SDS011;9041;49.718;21.798;2023-04-24T00:27:44;7.57;;;4.25;;
17832;SDS011;9041;49.718;21.798;2023-04-24T00:30:15;6.90;;;4.57;;
17832;SDS011;9041;49.718;21.798;2023-04-24T00:32:42;9.40;;;4.85;;
17832;SDS011;9041;49.718;21.798;2023-04-24T00:35:09;8.17;;;4.90;;
17832;SDS011;9041;49.718;21.798;2023-04-24T00:37:36;9.73;;;4.95;;
17832;SDS011;9041;49.718;21.798;2023-04-24T00:40:05;7.75;;;4.60;;
17832;SDS011;9041;49.718;21.798;2023-04-24T00:42:33;7.68;;;4.63;;
17832;SDS011;9041;49.718;21.798;2023-04-24T00:44:59;7.55;;;4.80;;
17832;SDS011;9041;49.718;21.798;2023-04-24T00:47:28;7.80;;;5.30;;
17832;SDS011;9041;49.718;21.798;2023-04-24T00:49:55;7.90;;;4.93;;
17832;SDS011;9041;49.718;21.798;2023-04-24T00:52:22;9.03;;;5.00;;
17832;SDS011;9041;49.718;21.798;2023-04-24T00:54:49;9.27;;;4.87;;
17832;SDS011;9041;49.718;21.798;2023-04-24T00:57:18;11.27;;;5.40;;
17832;SDS011;9041;49.718;21.798;2023-04-24T00:59:45;9.10;;;5.10;;
17832;SDS011;9041;49.718;21.798;2023-04-24T01:02:12;10.10;;;5.30;;
17832;SDS011;9041;49.718;21.798;2023-04-24T01:04:40;11.00;;;5.27;;
17832;SDS011;9041;49.718;21.798;2023-04-24T01:07:07;5.60;;;4.50;;
17832;SDS011;9041;49.718;21.798;2023-04-24T01:09:36;8.17;;;4.70;;
17832;SDS011;9041;49.718;21.798;2023-04-24T01:12:03;7.70;;;4.97;;
17832;SDS011;9041;49.718;21.798;2023-04-24T01:14:32;9.33;;;5.63;;
17832;SDS011;9041;49.718;21.798;2023-04-24T01:16:59;7.63;;;4.93;;
17832;SDS011;9041;49.718;21.798;2023-04-24T01:19:26;8.70;;;5.00;;
17832;SDS011;9041;49.718;21.798;2023-04-24T01:21:53;9.27;;;4.90;;
17832;SDS011;9041;49.718;21.798;2023-04-24T01:24:22;9.73;;;4.90;;
17832;SDS011;9041;49.718;21.798;2023-04-24T01:26:49;8.70;;;5.37;;
17832;SDS011;9041;49.718;21.798;2023-04-24T01:29:16;10.30;;;5.77;;
17832;SDS011;9041;49.718;21.798;2023-04-24T01:31:43;7.77;;;5.77;;
17832;SDS011;9041;49.718;21.798;2023-04-24T01:34:09;8.47;;;5.20;;
17832;SDS011;9041;49.718;21.798;2023-04-24T01:36:36;8.10;;;4.70;;
17832;SDS011;9041;49.718;21.798;2023-04-24T01:39:04;6.77;;;4.97;;
17832;SDS011;9041;49.718;21.798;2023-04-24T01:41:33;8.40;;;5.27;;
17832;SDS011;9041;49.718;21.798;2023-04-24T01:44:00;9.00;;;5.47;;
17832;SDS011;9041;49.718;21.798;2023-04-24T01:46:27;9.97;;;5.60;;
17832;SDS011;9041;49.718;21.798;2023-04-24T01:48:54;8.50;;;5.70;;
17832;SDS011;9041;49.718;21.798;2023-04-24T01:51:21;8.30;;;5.73;;
17832;SDS011;9041;49.718;21.798;2023-04-24T01:53:48;8.30;;;5.13;;
17832;SDS011;9041;49.718;21.798;2023-04-24T01:56:15;13.03;;;5.73;;
17832;SDS011;9041;49.718;21.798;2023-04-24T01:58:44;9.47;;;5.47;;
17832;SDS011;9041;49.718;21.798;2023-04-24T02:01:14;9.47;;;4.90;;
17832;SDS011;9041;49.718;21.798;2023-04-24T02:03:41;9.03;;;5.23;;
17832;SDS011;9041;49.718;21.798;2023-04-24T02:06:08;9.07;;;5.37;;
17832;SDS011;9041;49.718;21.798;2023-04-24T02:08:35;7.77;;;5.10;;
17832;SDS011;9041;49.718;21.798;2023-04-24T02:11:01;9.77;;;5.53;;
17832;SDS011;9041;49.718;21.798;2023-04-24T02:13:28;10.33;;;5.10;;
17832;SDS011;9041;49.718;21.798;2023-04-24T02:15:56;7.93;;;5.20;;
17832;SDS011;9041;49.718;21.798;2023-04-24T02:18:24;10.27;;;5.30;;
17832;SDS011;9041;49.718;21.798;2023-04-24T02:20:51;9.97;;;4.97;;
17832;SDS011;9041;49.718;21.798;2023-04-24T02:23:18;8.97;;;5.07;;
17832;SDS011;9041;49.718;21.798;2023-04-24T02:25:45;9.30;;;5.50;;
17832;SDS011;9041;49.718;21.798;2023-04-24T02:28:12;8.53;;;5.43;;
17832;SDS011;9041;49.718;21.798;2023-04-24T02:30:39;9.73;;;5.20;;
17832;SDS011;9041;49.718;21.798;2023-04-24T02:33:07;8.83;;;5.13;;
17832;SDS011;9041;49.718;21.798;2023-04-24T02:35:34;9.10;;;5.70;;
17832;SDS011;9041;49.718;21.798;2023-04-24T02:38:01;9.03;;;5.33;;
17832;SDS011;9041;49.718;21.798;2023-04-24T02:40:28;9.37;;;5.73;;
17832;SDS011;9041;49.718;21.798;2023-04-24T02:42:55;7.93;;;5.13;;
17832;SDS011;9041;49.718;21.798;2023-04-24T02:45:22;8.97;;;5.67;;
17832;SDS011;9041;49.718;21.798;2023-04-24T02:47:49;9.10;;;5.43;;
17832;SDS011;9041;49.718;21.798;2023-04-24T02:50:17;10.60;;;5.53;;
17832;SDS011;9041;49.718;21.798;2023-04-24T02:52:44;10.67;;;5.53;;
17832;SDS011;9041;49.718;21.798;2023-04-24T02:55:11;11.70;;;5.67;;
17832;SDS011;9041;49.718;21.798;2023-04-24T02:57:39;11.07;;;5.80;;
17832;SDS011;9041;49.718;21.798;2023-04-24T03:00:06;13.13;;;5.80;;
17832;SDS011;9041;49.718;21.798;2023-04-24T03:02:34;12.07;;;5.77;;
17832;SDS011;9041;49.718;21.798;2023-04-24T03:05:01;11.23;;;5.87;;
17832;SDS011;9041;49.718;21.798;2023-04-24T03:07:29;9.33;;;5.63;;
17832;SDS011;9041;49.718;21.798;2023-04-24T03:09:57;9.70;;;5.47;;
17832;SDS011;9041;49.718;21.798;2023-04-24T03:12:24;8.60;;;5.30;;
17832;SDS011;9041;49.718;21.798;2023-04-24T03:14:51;10.40;;;6.00;;
17832;SDS011;9041;49.718;21.798;2023-04-24T03:17:18;8.50;;;6.00;;
17832;SDS011;9041;49.718;21.798;2023-04-24T03:19:45;10.87;;;5.37;;
17832;SDS011;9041;49.718;21.798;2023-04-24T03:22:12;11.20;;;5.83;;
17832;SDS011;9041;49.718;21.798;2023-04-24T03:24:40;8.37;;;5.17;;
17832;SDS011;9041;49.718;21.798;2023-04-24T03:27:07;8.07;;;5.40;;
17832;SDS011;9041;49.718;21.798;2023-04-24T03:29:34;10.20;;;5.73;;
17832;SDS011;9041;49.718;21.798;2023-04-24T03:32:01;9.50;;;5.43;;
17832;SDS011;9041;49.718;21.798;2023-04-24T03:34:27;8.00;;;5.27;;
17832;SDS011;9041;49.718;21.798;2023-04-24T03:36:54;9.57;;;4.97;;
17832;SDS011;9041;49.718;21.798;2023-04-24T03:39:21;9.70;;;5.57;;
17832;SDS011;9041;49.718;21.798;2023-04-24T03:41:51;8.40;;;6.00;;
17832;SDS011;9041;49.718;21.798;2023-04-24T03:44:18;8.73;;;5.27;;
17832;SDS011;9041;49.718;21.798;2023-04-24T03:46:45;8.13;;;5.30;;
17832;SDS011;9041;49.718;21.798;2023-04-24T03:49:12;8.17;;;5.77;;
17832;SDS011;9041;49.718;21.798;2023-04-24T03:51:39;10.70;;;5.77;;
17832;SDS011;9041;49.718;21.798;2023-04-24T03:54:06;13.50;;;5.90;;
17832;SDS011;9041;49.718;21.798;2023-04-24T03:56:33;9.27;;;5.90;;
17832;SDS011;9041;49.718;21.798;2023-04-24T03:59:01;11.53;;;5.43;;
17832;SDS011;9041;49.718;21.798;2023-04-24T04:01:27;10.50;;;5.50;;
17832;SDS011;9041;49.718;21.798;2023-04-24T04:03:55;10.77;;;5.90;;
17832;SDS011;9041;49.718;21.798;2023-04-24T04:06:22;8.40;;;5.50;;
17832;SDS011;9041;49.718;21.798;2023-04-24T04:08:49;10.10;;;5.57;;
17832;SDS011;9041;49.718;21.798;2023-04-24T04:11:16;7.50;;;5.30;;
17832;SDS011;9041;49.718;21.798;2023-04-24T04:13:43;10.77;;;5.83;;
17832;SDS011;9041;49.718;21.798;2023-04-24T04:16:12;9.97;;;5.50;;
17832;SDS011;9041;49.718;21.798;2023-04-24T04:18:39;14.70;;;6.00;;
17832;SDS011;9041;49.718;21.798;2023-04-24T04:21:06;8.90;;;5.30;;
17832;SDS011;9041;49.718;21.798;2023-04-24T04:23:32;8.23;;;5.00;;
17832;SDS011;9041;49.718;21.798;2023-04-24T04:25:59;9.13;;;5.67;;
17832;SDS011;9041;49.718;21.798;2023-04-24T04:28:26;11.00;;;5.50;;
17832;SDS011;9041;49.718;21.798;2023-04-24T04:30:53;8.27;;;5.20;;
17832;SDS011;9041;49.718;21.798;2023-04-24T04:33:21;9.73;;;5.30;;
17832;SDS011;9041;49.718;21.798;2023-04-24T04:35:48;8.97;;;5.43;;
17832;SDS011;9041;49.718;21.798;2023-04-24T04:38:17;7.17;;;5.20;;
17832;SDS011;9041;49.718;21.798;2023-04-24T04:40:46;8.97;;;5.43;;
17832;SDS011;9041;49.718;21.798;2023-04-24T04:43:12;8.73;;;5.87;;
17832;SDS011;9041;49.718;21.798;2023-04-24T04:45:40;9.17;;;5.03;;
17832;SDS011;9041;49.718;21.798;2023-04-24T04:48:08;7.87;;;5.10;;
17832;SDS011;9041;49.718;21.798;2023-04-24T04:50:56;10.13;;;5.35;;
17832;SDS011;9041;49.718;21.798;2023-04-24T04:53:23;11.30;;;5.43;;
17832;SDS011;9041;49.718;21.798;2023-04-24T04:55:50;7.60;;;5.03;;
17832;SDS011;9041;49.718;21.798;2023-04-24T04:58:17;11.05;;;5.07;;
17832;SDS011;9041;49.718;21.798;2023-04-24T05:00:44;8.30;;;5.10;;
17832;SDS011;9041;49.718;21.798;2023-04-24T05:03:11;9.27;;;4.97;;
17832;SDS011;9041;49.718;21.798;2023-04-24T05:05:38;9.65;;;5.35;;
17832;SDS011;9041;49.718;21.798;2023-04-24T05:08:07;6.63;;;4.53;;
17832;SDS011;9041;49.718;21.798;2023-04-24T05:10:34;11.63;;;5.10;;
17832;SDS011;9041;49.718;21.798;2023-04-24T05:13:02;9.38;;;5.20;;
17832;SDS011;9041;49.718;21.798;2023-04-24T05:15:29;8.25;;;4.93;;
17832;SDS011;9041;49.718;21.798;2023-04-24T05:17:56;8.80;;;4.35;;
17832;SDS011;9041;49.718;21.798;2023-04-24T05:20:23;10.82;;;4.88;;
17832;SDS011;9041;49.718;21.798;2023-04-24T05:22:50;10.65;;;5.13;;
17832;SDS011;9041;49.718;21.798;2023-04-24T05:25:18;9.25;;;5.13;;
17832;SDS011;9041;49.718;21.798;2023-04-24T05:27:45;8.93;;;4.93;;
17832;SDS011;9041;49.718;21.798;2023-04-24T05:30:12;10.65;;;5.20;;
17832;SDS011;9041;49.718;21.798;2023-04-24T05:32:39;7.47;;;4.90;;
17832;SDS011;9041;49.718;21.798;2023-04-24T05:35:07;7.68;;;5.05;;
17832;SDS011;9041;49.718;21.798;2023-04-24T05:37:34;11.70;;;4.75;;
17832;SDS011;9041;49.718;21.798;2023-04-24T05:40:01;8.50;;;4.72;;
17832;SDS011;9041;49.718;21.798;2023-04-24T05:42:31;6.90;;;4.88;;
17832;SDS011;9041;49.718;21.798;2023-04-24T05:44:58;7.25;;;4.45;;
17832;SDS011;9041;49.718;21.798;2023-04-24T05:50:47;6.35;;;4.13;;
17832;SDS011;9041;49.718;21.798;2023-04-24T05:53:14;6.28;;;4.40;;
17832;SDS011;9041;49.718;21.798;2023-04-24T05:55:41;7.10;;;4.43;;
17832;SDS011;9041;49.718;21.798;2023-04-24T05:58:09;7.57;;;4.80;;
17832;SDS011;9041;49.718;21.798;2023-04-24T06:00:36;7.85;;;4.50;;
17832;SDS011;9041;49.718;21.798;2023-04-24T06:03:04;7.78;;;4.50;;
17832;SDS011;9041;49.718;21.798;2023-04-24T06:05:31;7.28;;;4.75;;
17832;SDS011;9041;49.718;21.798;2023-04-24T06:07:59;9.73;;;4.65;;
17832;SDS011;9041;49.718;21.798;2023-04-24T06:10:26;7.93;;;4.38;;
17832;SDS011;9041;49.718;21.798;2023-04-24T06:12:52;8.27;;;4.40;;
17832;SDS011;9041;49.718;21.798;2023-04-24T06:15:22;10.45;;;4.53;;
17832;SDS011;9041;49.718;21.798;2023-04-24T06:17:49;10.02;;;4.63;;
17832;SDS011;9041;49.718;21.798;2023-04-24T06:20:16;6.55;;;4.30;;
17832;SDS011;9041;49.718;21.798;2023-04-24T06:22:43;7.55;;;4.70;;
17832;SDS011;9041;49.718;21.798;2023-04-24T06:25:10;6.55;;;4.28;;
17832;SDS011;9041;49.718;21.798;2023-04-24T06:27:37;9.90;;;4.65;;
17832;SDS011;9041;49.718;21.798;2023-04-24T06:30:04;8.15;;;5.18;;
17832;SDS011;9041;49.718;21.798;2023-04-24T06:32:33;7.93;;;4.20;;
17832;SDS011;9041;49.718;21.798;2023-04-24T06:35:01;10.43;;;4.55;;
17832;SDS011;9041;49.718;21.798;2023-04-24T06:37:27;12.02;;;5.35;;
17832;SDS011;9041;49.718;21.798;2023-04-24T06:39:55;8.00;;;4.25;;
17832;SDS011;9041;49.718;21.798;2023-04-24T06:42:22;6.35;;;4.18;;
17832;SDS011;9041;49.718;21.798;2023-04-24T06:44:49;11.10;;;4.53;;
17832;SDS011;9041;49.718;21.798;2023-04-24T06:47:16;6.93;;;3.60;;
17832;SDS011;9041;49.718;21.798;2023-04-24T06:49:45;9.95;;;4.20;;
17832;SDS011;9041;49.718;21.798;2023-04-24T06:52:11;11.30;;;4.57;;
17832;SDS011;9041;49.718;21.798;2023-04-24T06:54:38;8.30;;;4.22;;
17832;SDS011;9041;49.718;21.798;2023-04-24T06:57:05;8.68;;;4.78;;
17832;SDS011;9041;49.718;21.798;2023-04-24T06:59:32;10.30;;;4.80;;
17832;SDS011;9041;49.718;21.798;2023-04-24T07:01:59;9.35;;;4.07;;
17832;SDS011;9041;49.718;21.798;2023-04-24T07:04:26;6.03;;;4.10;;
17832;SDS011;9041;49.718;21.798;2023-04-24T07:06:54;6.45;;;4.32;;
17832;SDS011;9041;49.718;21.798;2023-04-24T07:09:23;7.57;;;4.00;;
17832;SDS011;9041;49.718;21.798;2023-04-24T07:11:50;6.38;;;3.83;;
17832;SDS011;9041;49.718;21.798;2023-04-24T07:14:18;6.80;;;3.83;;
17832;SDS011;9041;49.718;21.798;2023-04-24T07:16:45;6.72;;;3.80;;
17832;SDS011;9041;49.718;21.798;2023-04-24T07:19:12;5.75;;;3.65;;
17832;SDS011;9041;49.718;21.798;2023-04-24T07:21:39;6.25;;;3.70;;
17832;SDS011;9041;49.718;21.798;2023-04-24T07:24:07;6.68;;;3.80;;
17832;SDS011;9041;49.718;21.798;2023-04-24T07:26:36;6.43;;;4.00;;
17832;SDS011;9041;49.718;21.798;2023-04-24T07:29:04;5.68;;;3.67;;
17832;SDS011;9041;49.718;21.798;2023-04-24T07:31:31;7.03;;;3.90;;
17832;SDS011;9041;49.718;21.798;2023-04-24T07:33:57;7.05;;;3.70;;
17832;SDS011;9041;49.718;21.798;2023-04-24T07:36:25;7.05;;;4.10;;
17832;SDS011;9041;49.718;21.798;2023-04-24T07:38:52;4.95;;;3.53;;
17832;SDS011;9041;49.718;21.798;2023-04-24T07:41:20;6.53;;;3.80;;
17832;SDS011;9041;49.718;21.798;2023-04-24T07:43:47;7.45;;;3.67;;
17832;SDS011;9041;49.718;21.798;2023-04-24T07:46:14;9.65;;;3.85;;
17832;SDS011;9041;49.718;21.798;2023-04-24T07:48:41;7.95;;;3.85;;
17832;SDS011;9041;49.718;21.798;2023-04-24T07:51:08;7.50;;;4.00;;
17832;SDS011;9041;49.718;21.798;2023-04-24T07:53:40;8.18;;;3.90;;
17832;SDS011;9041;49.718;21.798;2023-04-24T07:56:07;5.72;;;3.80;;
17832;SDS011;9041;49.718;21.798;2023-04-24T07:58:35;6.10;;;3.40;;
17832;SDS011;9041;49.718;21.798;2023-04-24T08:01:02;5.63;;;3.30;;
17832;SDS011;9041;49.718;21.798;2023-04-24T08:03:29;4.90;;;3.67;;
17832;SDS011;9041;49.718;21.798;2023-04-24T08:05:57;7.78;;;3.95;;
17832;SDS011;9041;49.718;21.798;2023-04-24T08:08:24;6.10;;;4.07;;
17832;SDS011;9041;49.718;21.798;2023-04-24T08:10:51;6.70;;;3.58;;
17832;SDS011;9041;49.718;21.798;2023-04-24T08:13:17;7.43;;;4.10;;
17832;SDS011;9041;49.718;21.798;2023-04-24T08:15:46;7.50;;;3.90;;
17832;SDS011;9041;49.718;21.798;2023-04-24T08:18:13;6.32;;;3.63;;
17832;SDS011;9041;49.718;21.798;2023-04-24T08:20:40;10.05;;;4.30;;
17832;SDS011;9041;49.718;21.798;2023-04-24T08:23:07;7.28;;;4.18;;
17832;SDS011;9041;49.718;21.798;2023-04-24T08:25:34;8.82;;;4.40;;
17832;SDS011;9041;49.718;21.798;2023-04-24T08:28:02;9.68;;;4.50;;
17832;SDS011;9041;49.718;21.798;2023-04-24T08:30:29;4.70;;;3.55;;
17832;SDS011;9041;49.718;21.798;2023-04-24T08:32:57;7.28;;;4.15;;
17832;SDS011;9041;49.718;21.798;2023-04-24T08:35:24;7.60;;;4.03;;
17832;SDS011;9041;49.718;21.798;2023-04-24T08:37:51;9.55;;;4.07;;
17832;SDS011;9041;49.718;21.798;2023-04-24T08:40:18;8.05;;;3.92;;
17832;SDS011;9041;49.718;21.798;2023-04-24T08:42:49;7.88;;;4.47;;
17832;SDS011;9041;49.718;21.798;2023-04-24T08:45:16;7.30;;;4.03;;
17832;SDS011;9041;49.718;21.798;2023-04-24T08:47:43;6.20;;;3.67;;
17832;SDS011;9041;49.718;21.798;2023-04-24T08:50:12;7.93;;;4.03;;
17832;SDS011;9041;49.718;21.798;2023-04-24T08:52:38;6.03;;;3.95;;
17832;SDS011;9041;49.718;21.798;2023-04-24T08:55:06;6.93;;;4.05;;
17832;SDS011;9041;49.718;21.798;2023-04-24T08:57:33;7.22;;;3.65;;
17832;SDS011;9041;49.718;21.798;2023-04-24T09:00:01;9.50;;;3.90;;
17832;SDS011;9041;49.718;21.798;2023-04-24T09:02:29;6.85;;;3.90;;
17832;SDS011;9041;49.718;21.798;2023-04-24T09:04:57;8.00;;;3.95;;
17832;SDS011;9041;49.718;21.798;2023-04-24T09:07:25;9.38;;;3.95;;
17832;SDS011;9041;49.718;21.798;2023-04-24T09:09:54;9.80;;;4.43;;
17832;SDS011;9041;49.718;21.798;2023-04-24T09:12:21;7.93;;;4.38;;
17832;SDS011;9041;49.718;21.798;2023-04-24T09:14:48;7.93;;;4.40;;
17832;SDS011;9041;49.718;21.798;2023-04-24T09:17:15;7.90;;;4.20;;
17832;SDS011;9041;49.718;21.798;2023-04-24T09:19:42;12.77;;;4.72;;
17832;SDS011;9041;49.718;21.798;2023-04-24T09:22:10;7.78;;;4.35;;
17832;SDS011;9041;49.718;21.798;2023-04-24T09:24:38;12.80;;;4.20;;
17832;SDS011;9041;49.718;21.798;2023-04-24T09:27:05;10.25;;;4.88;;
17832;SDS011;9041;49.718;21.798;2023-04-24T09:29:33;6.65;;;4.10;;
17832;SDS011;9041;49.718;21.798;2023-04-24T09:32:04;6.00;;;3.75;;
17832;SDS011;9041;49.718;21.798;2023-04-24T09:34:44;7.57;;;4.35;;
17832;SDS011;9041;49.718;21.798;2023-04-24T09:37:15;8.38;;;3.60;;
17832;SDS011;9041;49.718;21.798;2023-04-24T09:40:08;6.60;;;3.58;;
17832;SDS011;9041;49.718;21.798;2023-04-24T09:42:36;6.60;;;3.60;;
17832;SDS011;9041;49.718;21.798;2023-04-24T09:45:04;16.20;;;4.07;;
17832;SDS011;9041;49.718;21.798;2023-04-24T09:47:35;17.65;;;4.43;;
17832;SDS011;9041;49.718;21.798;2023-04-24T09:50:08;12.38;;;4.47;;
17832;SDS011;9041;49.718;21.798;2023-04-24T09:52:37;14.77;;;4.10;;
17832;SDS011;9041;49.718;21.798;2023-04-24T09:55:11;7.15;;;4.47;;
17832;SDS011;9041;49.718;21.798;2023-04-24T09:57:46;6.05;;;3.83;;
17832;SDS011;9041;49.718;21.798;2023-04-24T10:00:26;6.70;;;4.20;;
17832;SDS011;9041;49.718;21.798;2023-04-24T10:02:54;7.85;;;3.80;;
17832;SDS011;9041;49.718;21.798;2023-04-24T10:05:25;4.57;;;3.35;;
17832;SDS011;9041;49.718;21.798;2023-04-24T10:07:56;7.53;;;3.55;;
17832;SDS011;9041;49.718;21.798;2023-04-24T10:10:25;7.35;;;3.42;;
17832;SDS011;9041;49.718;21.798;2023-04-24T10:12:52;7.93;;;3.72;;
17832;SDS011;9041;49.718;21.798;2023-04-24T10:15:19;5.13;;;3.30;;
17832;SDS011;9041;49.718;21.798;2023-04-24T10:17:46;6.03;;;3.58;;
17832;SDS011;9041;49.718;21.798;2023-04-24T10:20:17;5.80;;;3.45;;
17832;SDS011;9041;49.718;21.798;2023-04-24T10:22:45;6.72;;;3.22;;
17832;SDS011;9041;49.718;21.798;2023-04-24T10:25:16;6.07;;;3.35;;
17832;SDS011;9041;49.718;21.798;2023-04-24T10:27:44;4.18;;;3.30;;
17832;SDS011;9041;49.718;21.798;2023-04-24T10:30:12;10.25;;;3.60;;
17832;SDS011;9041;49.718;21.798;2023-04-24T10:32:40;7.43;;;3.25;;
17832;SDS011;9041;49.718;21.798;2023-04-24T10:35:07;5.55;;;3.17;;
17832;SDS011;9041;49.718;21.798;2023-04-24T10:37:35;5.40;;;3.22;;
17832;SDS011;9041;49.718;21.798;2023-04-24T10:40:04;4.65;;;3.45;;
17832;SDS011;9041;49.718;21.798;2023-04-24T10:42:33;6.97;;;3.25;;
17832;SDS011;9041;49.718;21.798;2023-04-24T10:45:01;6.28;;;3.50;;
17832;SDS011;9041;49.718;21.798;2023-04-24T10:47:39;6.70;;;3.10;;
17832;SDS011;9041;49.718;21.798;2023-04-24T10:50:07;5.35;;;3.47;;
17832;SDS011;9041;49.718;21.798;2023-04-24T10:52:44;6.10;;;3.70;;
17832;SDS011;9041;49.718;21.798;2023-04-24T10:55:12;9.20;;;3.55;;
17832;SDS011;9041;49.718;21.798;2023-04-24T10:57:40;4.85;;;3.30;;
17832;SDS011;9041;49.718;21.798;2023-04-24T11:00:31;7.63;;;3.47;;
17832;SDS011;9041;49.718;21.798;2023-04-24T11:02:58;7.32;;;3.35;;
17832;SDS011;9041;49.718;21.798;2023-04-24T11:08:25;6.85;;;2.58;;
17832;SDS011;9041;49.718;21.798;2023-04-24T11:11:00;4.60;;;3.20;;
17832;SDS011;9041;49.718;21.798;2023-04-24T11:16:34;8.75;;;3.88;;
17832;SDS011;9041;49.718;21.798;2023-04-24T11:19:04;13.63;;;4.05;;
17832;SDS011;9041;49.718;21.798;2023-04-24T11:21:32;10.25;;;3.65;;
17832;SDS011;9041;49.718;21.798;2023-04-24T11:24:27;7.50;;;3.85;;
17832;SDS011;9041;49.718;21.798;2023-04-24T11:26:56;7.10;;;3.25;;
17832;SDS011;9041;49.718;21.798;2023-04-24T11:29:37;7.95;;;3.67;;
17832;SDS011;9041;49.718;21.798;2023-04-24T11:32:15;6.45;;;3.28;;
17832;SDS011;9041;49.718;21.798;2023-04-24T11:34:49;5.40;;;3.35;;
17832;SDS011;9041;49.718;21.798;2023-04-24T11:37:17;4.88;;;3.53;;
17832;SDS011;9041;49.718;21.798;2023-04-24T11:39:44;7.00;;;3.35;;
17832;SDS011;9041;49.718;21.798;2023-04-24T11:42:12;7.07;;;3.03;;
17832;SDS011;9041;49.718;21.798;2023-04-24T11:44:41;5.47;;;3.30;;
17832;SDS011;9041;49.718;21.798;2023-04-24T11:47:08;12.43;;;3.60;;
17832;SDS011;9041;49.718;21.798;2023-04-24T11:49:37;6.45;;;3.28;;
17832;SDS011;9041;49.718;21.798;2023-04-24T11:52:04;7.95;;;3.30;;
17832;SDS011;9041;49.718;21.798;2023-04-24T11:54:31;4.13;;;3.10;;
17832;SDS011;9041;49.718;21.798;2023-04-24T11:56:58;9.05;;;3.60;;
17832;SDS011;9041;49.718;21.798;2023-04-24T11:59:25;6.15;;;3.33;;
17832;SDS011;9041;49.718;21.798;2023-04-24T12:01:52;5.30;;;3.05;;
17832;SDS011;9041;49.718;21.798;2023-04-24T12:04:19;4.65;;;3.08;;
17832;SDS011;9041;49.718;21.798;2023-04-24T12:07:02;6.50;;;3.28;;
17832;SDS011;9041;49.718;21.798;2023-04-24T12:09:39;8.27;;;3.60;;
17832;SDS011;9041;49.718;21.798;2023-04-24T12:12:07;9.20;;;3.15;;
17832;SDS011;9041;49.718;21.798;2023-04-24T12:14:41;7.07;;;2.95;;
17832;SDS011;9041;49.718;21.798;2023-04-24T12:17:08;6.38;;;3.88;;
17832;SDS011;9041;49.718;21.798;2023-04-24T12:19:35;2.92;;;2.60;;
17832;SDS011;9041;49.718;21.798;2023-04-24T12:22:05;7.00;;;3.25;;
17832;SDS011;9041;49.718;21.798;2023-04-24T12:24:33;5.93;;;3.08;;
17832;SDS011;9041;49.718;21.798;2023-04-24T12:26:59;4.05;;;3.17;;
17832;SDS011;9041;49.718;21.798;2023-04-24T12:29:27;6.85;;;3.65;;
17832;SDS011;9041;49.718;21.798;2023-04-24T12:31:54;5.30;;;3.70;;
17832;SDS011;9041;49.718;21.798;2023-04-24T12:34:22;6.63;;;3.65;;
17832;SDS011;9041;49.718;21.798;2023-04-24T12:36:50;6.22;;;3.17;;
17832;SDS011;9041;49.718;21.798;2023-04-24T12:39:18;5.20;;;3.63;;
17832;SDS011;9041;49.718;21.798;2023-04-24T12:41:50;22.75;;;7.97;;
17832;SDS011;9041;49.718;21.798;2023-04-24T12:44:17;12.98;;;4.90;;
17832;SDS011;9041;49.718;21.798;2023-04-24T12:46:44;8.90;;;4.05;;
17832;SDS011;9041;49.718;21.798;2023-04-24T12:49:11;20.55;;;8.85;;
17832;SDS011;9041;49.718;21.798;2023-04-24T12:51:38;27.02;;;9.98;;
17832;SDS011;9041;49.718;21.798;2023-04-24T12:54:05;26.48;;;9.15;;
17832;SDS011;9041;49.718;21.798;2023-04-24T12:56:33;25.10;;;10.02;;
17832;SDS011;9041;49.718;21.798;2023-04-24T12:59:04;9.93;;;4.53;;
17832;SDS011;9041;49.718;21.798;2023-04-24T13:01:31;8.65;;;3.70;;
17832;SDS011;9041;49.718;21.798;2023-04-24T13:03:58;20.35;;;8.70;;
17832;SDS011;9041;49.718;21.798;2023-04-24T13:06:24;23.38;;;7.10;;
17832;SDS011;9041;49.718;21.798;2023-04-24T13:08:52;8.88;;;5.20;;
17832;SDS011;9041;49.718;21.798;2023-04-24T13:11:19;9.73;;;4.35;;
17832;SDS011;9041;49.718;21.798;2023-04-24T13:13:48;23.95;;;9.20;;
17832;SDS011;9041;49.718;21.798;2023-04-24T13:16:15;31.48;;;10.85;;
17832;SDS011;9041;49.718;21.798;2023-04-24T13:18:42;28.23;;;9.40;;
17832;SDS011;9041;49.718;21.798;2023-04-24T13:21:08;26.13;;;10.25;;
17832;SDS011;9041;49.718;21.798;2023-04-24T13:23:35;25.20;;;9.20;;
17832;SDS011;9041;49.718;21.798;2023-04-24T13:26:02;27.13;;;10.40;;
17832;SDS011;9041;49.718;21.798;2023-04-24T13:28:29;25.20;;;9.40;;
17832;SDS011;9041;49.718;21.798;2023-04-24T13:30:57;15.85;;;6.55;;
17832;SDS011;9041;49.718;21.798;2023-04-24T13:33:24;35.60;;;11.85;;
17832;SDS011;9041;49.718;21.798;2023-04-24T13:35:51;29.67;;;11.25;;
17832;SDS011;9041;49.718;21.798;2023-04-24T13:38:18;30.88;;;9.90;;
17832;SDS011;9041;49.718;21.798;2023-04-24T13:40:46;18.42;;;6.32;;
17832;SDS011;9041;49.718;21.798;2023-04-24T13:43:13;18.85;;;6.35;;
17832;SDS011;9041;49.718;21.798;2023-04-24T13:45:40;20.63;;;7.03;;
17832;SDS011;9041;49.718;21.798;2023-04-24T13:48:09;24.48;;;8.15;;
17832;SDS011;9041;49.718;21.798;2023-04-24T13:50:35;14.23;;;5.35;;
17832;SDS011;9041;49.718;21.798;2023-04-24T13:53:02;19.65;;;7.80;;
17832;SDS011;9041;49.718;21.798;2023-04-24T13:55:29;14.15;;;6.18;;
17832;SDS011;9041;49.718;21.798;2023-04-24T13:57:56;20.00;;;8.18;;
17832;SDS011;9041;49.718;21.798;2023-04-24T14:00:23;10.10;;;5.55;;
17832;SDS011;9041;49.718;21.798;2023-04-24T14:02:50;13.38;;;5.25;;
17832;SDS011;9041;49.718;21.798;2023-04-24T14:05:18;10.25;;;5.32;;
17832;SDS011;9041;49.718;21.798;2023-04-24T14:07:46;18.40;;;7.10;;
17832;SDS011;9041;49.718;21.798;2023-04-24T14:10:13;16.70;;;6.45;;
17832;SDS011;9041;49.718;21.798;2023-04-24T14:12:40;16.95;;;6.22;;
17832;SDS011;9041;49.718;21.798;2023-04-24T14:15:07;10.02;;;6.10;;
17832;SDS011;9041;49.718;21.798;2023-04-24T14:17:35;14.00;;;5.53;;
17832;SDS011;9041;49.718;21.798;2023-04-24T14:20:03;9.93;;;4.80;;
17832;SDS011;9041;49.718;21.798;2023-04-24T14:22:33;7.28;;;4.50;;
17832;SDS011;9041;49.718;21.798;2023-04-24T14:25:00;11.70;;;5.10;;
17832;SDS011;9041;49.718;21.798;2023-04-24T14:27:27;11.82;;;5.18;;
17832;SDS011;9041;49.718;21.798;2023-04-24T14:29:53;8.18;;;4.72;;
17832;SDS011;9041;49.718;21.798;2023-04-24T14:32:20;10.45;;;5.22;;
17832;SDS011;9041;49.718;21.798;2023-04-24T14:34:47;7.90;;;5.30;;
17832;SDS011;9041;49.718;21.798;2023-04-24T14:37:14;9.90;;;5.18;;
17832;SDS011;9041;49.718;21.798;2023-04-24T14:39:42;8.57;;;5.03;;
17832;SDS011;9041;49.718;21.798;2023-04-24T14:42:09;7.82;;;5.00;;
17832;SDS011;9041;49.718;21.798;2023-04-24T14:44:36;8.32;;;5.22;;
17832;SDS011;9041;49.718;21.798;2023-04-24T14:47:03;10.10;;;5.10;;
17832;SDS011;9041;49.718;21.798;2023-04-24T14:49:30;14.15;;;5.15;;
17832;SDS011;9041;49.718;21.798;2023-04-24T14:51:56;7.22;;;5.07;;
17832;SDS011;9041;49.718;21.798;2023-04-24T14:54:23;10.40;;;4.88;;
17832;SDS011;9041;49.718;21.798;2023-04-24T14:56:52;9.90;;;5.15;;